sensor_id;sensor_type;location;lat;lon;timestamp;pressure;altitude;pressure_sealevel;temperature;humidity
22930;BME280;11630;42.660;23.292;2023-02-12T00:01:44;67807.67;;;2.39;45.29
22930;BME280;11630;42.660;23.292;2023-02-12T00:04:15;67809.30;;;2.43;44.87
22930;BME280;11630;42.660;23.292;2023-02-12T00:06:45;67798.22;;;2.31;45.32
22930;BME280;11630;42.660;23.292;2023-02-12T00:09:16;67789.86;;;2.25;45.62
22930;BME280;11630;42.660;23.292;2023-02-12T00:11:47;67797.72;;;2.36;44.67
22930;BME280;11630;42.660;23.292;2023-02-12T00:14:19;67803.34;;;2.35;44.88
22930;BME280;11630;42.660;23.292;2023-02-12T00:16:49;67804.44;;;2.38;45.00
22930;BME280;11630;42.660;23.292;2023-02-12T00:19:19;67806.88;;;2.42;45.45
22930;BME280;11630;42.660;23.292;2023-02-12T00:21:50;67800.41;;;2.36;45.16
22930;BME280;11630;42.660;23.292;2023-02-12T00:24:21;67804.45;;;2.41;44.98
22930;BME280;11630;42.660;23.292;2023-02-12T00:26:51;67796.61;;;2.30;45.16
22930;BME280;11630;42.660;23.292;2023-02-12T00:29:22;67785.03;;;2.23;45.42
22930;BME280;11630;42.660;23.292;2023-02-12T00:31:53;67793.66;;;2.28;45.46
22930;BME280;11630;42.660;23.292;2023-02-12T00:34:24;67789.60;;;2.26;45.69
22930;BME280;11630;42.660;23.292;2023-02-12T00:36:55;67791.77;;;2.28;45.93
22930;BME280;11630;42.660;23.292;2023-02-12T00:39:26;67792.84;;;2.29;45.87
22930;BME280;11630;42.660;23.292;2023-02-12T00:41:56;67787.45;;;2.24;46.07
22930;BME280;11630;42.660;23.292;2023-02-12T00:44:26;67785.31;;;2.25;45.95
22930;BME280;11630;42.660;23.292;2023-02-12T00:46:57;67791.78;;;2.30;45.90
22930;BME280;11630;42.660;23.292;2023-02-12T00:49:28;67795.81;;;2.33;45.89
22930;BME280;11630;42.660;23.292;2023-02-12T00:52:03;67804.71;;;2.40;45.87
22930;BME280;11630;42.660;23.292;2023-02-12T00:54:34;67795.55;;;2.31;46.16
22930;BME280;11630;42.660;23.292;2023-02-12T00:57:04;67786.12;;;2.24;46.44
22930;BME280;11630;42.660;23.292;2023-02-12T00:59:35;67794.19;;;2.29;46.04
22930;BME280;11630;42.660;23.292;2023-02-12T01:02:06;67793.91;;;2.28;46.10
22930;BME280;11630;42.660;23.292;2023-02-12T01:04:37;67787.40;;;2.19;46.61
22930;BME280;11630;42.660;23.292;2023-02-12T01:07:09;67792.84;;;2.29;46.04
22930;BME280;11630;42.660;23.292;2023-02-12T01:09:40;67790.69;;;2.27;46.33
22930;BME280;11630;42.660;23.292;2023-02-12T01:12:11;67796.61;;;2.30;46.49
22930;BME280;11630;42.660;23.292;2023-02-12T01:14:42;67793.14;;;2.33;46.40
22930;BME280;11630;42.660;23.292;2023-02-12T01:17:13;67796.09;;;2.32;46.49
22930;BME280;11630;42.660;23.292;2023-02-12T01:19:44;67797.44;;;2.32;46.56
22930;BME280;11630;42.660;23.292;2023-02-12T01:22:15;67800.66;;;2.35;46.76
22930;BME280;11630;42.660;23.292;2023-02-12T01:24:45;67793.93;;;2.30;46.88
22930;BME280;11630;42.660;23.292;2023-02-12T01:27:17;67801.17;;;2.33;47.10
22930;BME280;11630;42.660;23.292;2023-02-12T01:29:48;67801.74;;;2.36;47.10
22930;BME280;11630;42.660;23.292;2023-02-12T01:32:19;67790.69;;;2.27;47.33
22930;BME280;11630;42.660;23.292;2023-02-12T01:34:49;67797.14;;;2.30;47.51
22930;BME280;11630;42.660;23.292;2023-02-12T01:37:20;67794.19;;;2.29;47.79
22930;BME280;11630;42.660;23.292;2023-02-12T01:39:51;67791.48;;;2.27;48.14
22930;BME280;11630;42.660;23.292;2023-02-12T01:42:22;67779.37;;;2.19;48.43
22930;BME280;11630;42.660;23.292;2023-02-12T01:47:45;67779.35;;;2.17;48.75
22930;BME280;11630;42.660;23.292;2023-02-12T01:50:17;67775.55;;;2.11;49.03
22930;BME280;11630;42.660;23.292;2023-02-12T01:52:52;67769.92;;;2.09;49.15
22930;BME280;11630;42.660;23.292;2023-02-12T01:55:22;67769.61;;;2.05;49.49
22930;BME280;11630;42.660;23.292;2023-02-12T01:57:53;67767.51;;;2.08;49.50
22930;BME280;11630;42.660;23.292;2023-02-12T02:00:25;67765.88;;;2.07;49.75
22930;BME280;11630;42.660;23.292;2023-02-12T02:02:56;67770.45;;;2.10;49.97
22930;BME280;11630;42.660;23.292;2023-02-12T02:05:49;67768.53;;;2.04;50.20
22930;BME280;11630;42.660;23.292;2023-02-12T02:08:14;67762.08;;;2.01;50.50
22930;BME280;11630;42.660;23.292;2023-02-12T02:10:44;67767.51;;;2.08;50.48
22930;BME280;11630;42.660;23.292;2023-02-12T02:13:15;67770.73;;;2.11;50.15
22930;BME280;11630;42.660;23.292;2023-02-12T02:16:16;67770.95;;;2.05;50.52
22930;BME280;11630;42.660;23.292;2023-02-12T02:18:42;67769.08;;;2.05;50.60
22930;BME280;11630;42.660;23.292;2023-02-12T02:21:30;67769.10;;;2.07;50.73
22930;BME280;11630;42.660;23.292;2023-02-12T02:24:15;67775.53;;;2.08;50.93
22930;BME280;11630;42.660;23.292;2023-02-12T02:27:09;67774.20;;;2.08;51.24
22930;BME280;11630;42.660;23.292;2023-02-12T02:38:10;67765.09;;;2.07;52.75
22930;BME280;11630;42.660;23.292;2023-02-12T02:40:48;67754.02;;;1.96;53.47
22930;BME280;11630;42.660;23.292;2023-02-12T02:43:30;67760.98;;;1.97;54.15
22930;BME280;11630;42.660;23.292;2023-02-12T02:46:01;67765.81;;;1.99;54.58
22930;BME280;11630;42.660;23.292;2023-02-12T02:49:03;67762.61;;;1.99;55.17
22930;BME280;11630;42.660;23.292;2023-02-12T02:51:18;67765.05;;;2.02;55.64
22930;BME280;11630;42.660;23.292;2023-02-12T02:53:52;67768.78;;;2.03;55.96
22930;BME280;11630;42.660;23.292;2023-02-12T02:56:22;67765.86;;;2.04;56.28
22930;BME280;11630;42.660;23.292;2023-02-12T02:59:02;67770.19;;;2.08;56.28
22930;BME280;11630;42.660;23.292;2023-02-12T03:01:37;67776.09;;;2.11;56.26
22930;BME280;11630;42.660;23.292;2023-02-12T03:04:28;67773.66;;;2.10;56.45
22930;BME280;11630;42.660;23.292;2023-02-12T03:06:53;67774.75;;;2.11;56.70
22930;BME280;11630;42.660;23.292;2023-02-12T03:09:16;67772.33;;;2.10;56.83
22930;BME280;11630;42.660;23.292;2023-02-12T03:11:46;67776.38;;;2.13;57.11
22930;BME280;11630;42.660;23.292;2023-02-12T03:14:31;67781.24;;;2.17;57.31
22930;BME280;11630;42.660;23.292;2023-02-12T03:17:09;67792.04;;;2.29;57.09
22930;BME280;11630;42.660;23.292;2023-02-12T03:19:41;67797.98;;;2.35;57.01
22930;BME280;11630;42.660;23.292;2023-02-12T03:22:33;67798.22;;;2.31;57.18
22930;BME280;11630;42.660;23.292;2023-02-12T03:25:03;67799.58;;;2.34;57.35
22930;BME280;11630;42.660;23.292;2023-02-12T03:27:47;67795.02;;;2.31;57.44
22930;BME280;11630;42.660;23.292;2023-02-12T03:30:17;67810.67;;;2.48;57.05
22930;BME280;11630;42.660;23.292;2023-02-12T03:32:57;67814.40;;;2.44;57.24
22930;BME280;11630;42.660;23.292;2023-02-12T03:35:37;67814.17;;;2.50;57.08
22930;BME280;11630;42.660;23.292;2023-02-12T03:38:45;67812.55;;;2.46;56.99
22930;BME280;11630;42.660;23.292;2023-02-12T03:41:31;67808.23;;;2.44;57.34
22930;BME280;11630;42.660;23.292;2023-02-12T03:44:21;67817.13;;;2.51;57.65
22930;BME280;11630;42.660;23.292;2023-02-12T03:47:08;67832.27;;;2.65;57.55
22930;BME280;11630;42.660;23.292;2023-02-12T03:49:38;67813.09;;;2.49;58.27
22930;BME280;11630;42.660;23.292;2023-02-12T03:52:11;67818.51;;;2.54;58.47
22930;BME280;11630;42.660;23.292;2023-02-12T03:54:46;67819.79;;;2.49;59.20
22930;BME280;11630;42.660;23.292;2023-02-12T03:57:21;67812.02;;;2.48;59.66
22930;BME280;11630;42.660;23.292;2023-02-12T03:59:51;67826.58;;;2.59;59.33
22930;BME280;11630;42.660;23.292;2023-02-12T04:02:22;67827.66;;;2.60;59.48
22930;BME280;11630;42.660;23.292;2023-02-12T04:04:54;67812.55;;;2.46;60.28
22930;BME280;11630;42.660;23.292;2023-02-12T04:07:29;67814.16;;;2.47;60.43
22930;BME280;11630;42.660;23.292;2023-02-12T04:10:02;67816.59;;;2.51;60.89
22930;BME280;11630;42.660;23.292;2023-02-12T04:12:43;67818.20;;;2.50;60.57
22930;BME280;11630;42.660;23.292;2023-02-12T04:15:29;67792.58;;;2.28;61.68
22930;BME280;11630;42.660;23.292;2023-02-12T04:18:18;67790.17;;;2.29;61.75
22930;BME280;11630;42.660;23.292;2023-02-12T04:21:06;67783.94;;;2.20;63.60
22930;BME280;11630;42.660;23.292;2023-02-12T04:23:43;67787.45;;;2.24;62.57
22930;BME280;11630;42.660;23.292;2023-02-12T04:26:17;67769.92;;;2.09;64.32
22930;BME280;11630;42.660;23.292;2023-02-12T04:31:50;67772.88;;;2.11;64.45
22930;BME280;11630;42.660;23.292;2023-02-12T04:37:01;67712.17;;;1.53;67.67
22930;BME280;11630;42.660;23.292;2023-02-12T04:39:31;67728.66;;;1.72;67.61
22930;BME280;11630;42.660;23.292;2023-02-12T04:42:03;67723.81;;;1.68;68.14
22930;BME280;11630;42.660;23.292;2023-02-12T04:44:37;67734.81;;;1.74;67.66
22930;BME280;11630;42.660;23.292;2023-02-12T04:47:06;67733.19;;;1.70;67.49
22930;BME280;11630;42.660;23.292;2023-02-12T04:49:36;67726.46;;;1.65;68.39
22930;BME280;11630;42.660;23.292;2023-02-12T04:52:07;67738.34;;;1.79;67.89
22930;BME280;11630;42.660;23.292;2023-02-12T04:54:38;67738.83;;;1.74;67.90
22930;BME280;11630;42.660;23.292;2023-02-12T04:57:09;67735.64;;;1.76;68.61
22930;BME280;11630;42.660;23.292;2023-02-12T04:59:39;67735.90;;;1.75;68.35
22930;BME280;11630;42.660;23.292;2023-02-12T05:02:10;67726.50;;;1.70;69.07
22930;BME280;11630;42.660;23.292;2023-02-12T05:04:40;67748.59;;;1.88;68.42
22930;BME280;11630;42.660;23.292;2023-02-12T05:07:11;67797.69;;;2.31;65.73
22930;BME280;11630;42.660;23.292;2023-02-12T05:09:42;67786.89;;;2.21;65.90
22930;BME280;11630;42.660;23.292;2023-02-12T05:12:12;67763.44;;;2.03;67.20
22930;BME280;11630;42.660;23.292;2023-02-12T05:14:45;67767.77;;;2.07;65.91
22930;BME280;11630;42.660;23.292;2023-02-12T05:17:15;67760.73;;;2.01;65.30
22930;BME280;11630;42.660;23.292;2023-02-12T05:19:46;67767.51;;;2.08;63.29
22930;BME280;11630;42.660;23.292;2023-02-12T05:22:19;67789.86;;;2.25;62.26
22930;BME280;11630;42.660;23.292;2023-02-12T05:24:49;67791.75;;;2.26;62.81
22930;BME280;11630;42.660;23.292;2023-02-12T05:27:20;67780.16;;;2.16;64.73
22930;BME280;11630;42.660;23.292;2023-02-12T05:29:52;67780.14;;;2.14;65.76
22930;BME280;11630;42.660;23.292;2023-02-12T05:32:23;67765.59;;;2.05;66.52
22930;BME280;11630;42.660;23.292;2023-02-12T05:34:53;67751.26;;;1.88;68.22
22930;BME280;11630;42.660;23.292;2023-02-12T05:37:24;67752.34;;;1.89;68.37
22930;BME280;11630;42.660;23.292;2023-02-12T05:39:55;67741.03;;;1.81;69.23
22930;BME280;11630;42.660;23.292;2023-02-12T05:42:27;67742.65;;;1.80;70.27
22930;BME280;11630;42.660;23.292;2023-02-12T05:44:57;67719.97;;;1.59;73.16
22930;BME280;11630;42.660;23.292;2023-02-12T05:47:28;67722.69;;;1.62;74.02
22930;BME280;11630;42.660;23.292;2023-02-12T05:49:58;67714.33;;;1.55;74.92
22930;BME280;11630;42.660;23.292;2023-02-12T05:52:29;67712.48;;;1.57;75.72
22930;BME280;11630;42.660;23.292;2023-02-12T05:55:01;67713.50;;;1.53;76.35
22930;BME280;11630;42.660;23.292;2023-02-12T05:57:31;67716.69;;;1.51;77.25
22930;BME280;11630;42.660;23.292;2023-02-12T06:00:02;67720.80;;;1.61;77.64
22930;BME280;11630;42.660;23.292;2023-02-12T06:02:35;67716.23;;;1.58;78.47
22930;BME280;11630;42.660;23.292;2023-02-12T06:05:07;67716.23;;;1.58;79.18
22930;BME280;11630;42.660;23.292;2023-02-12T06:07:38;67705.45;;;1.49;81.64
22930;BME280;11630;42.660;23.292;2023-02-12T06:10:09;67697.33;;;1.39;83.35
22930;BME280;11630;42.660;23.292;2023-02-12T06:12:40;67682.27;;;1.30;85.09
22930;BME280;11630;42.660;23.292;2023-02-12T06:15:10;67686.80;;;1.28;86.49
22930;BME280;11630;42.660;23.292;2023-02-12T06:17:41;67684.13;;;1.28;88.05
22930;BME280;11630;42.660;23.292;2023-02-12T06:20:12;67684.41;;;1.29;89.00
22930;BME280;11630;42.660;23.292;2023-02-12T06:22:42;67687.08;;;1.29;89.54
22930;BME280;11630;42.660;23.292;2023-02-12T06:25:12;67680.36;;;1.24;90.24
22930;BME280;11630;42.660;23.292;2023-02-12T06:27:43;67691.13;;;1.34;90.87
22930;BME280;11630;42.660;23.292;2023-02-12T06:30:14;67692.47;;;1.34;91.74
22930;BME280;11630;42.660;23.292;2023-02-12T06:32:48;67694.13;;;1.38;93.59
22930;BME280;11630;42.660;23.292;2023-02-12T06:35:17;67683.88;;;1.29;96.25
22930;BME280;11630;42.660;23.292;2023-02-12T06:37:47;67671.18;;;1.16;99.10
22930;BME280;11630;42.660;23.292;2023-02-12T06:40:18;67667.70;;;1.14;100.00
22930;BME280;11630;42.660;23.292;2023-02-12T06:42:49;67666.07;;;1.12;100.00
22930;BME280;11630;42.660;23.292;2023-02-12T06:45:20;67674.70;;;1.20;100.00
22930;BME280;11630;42.660;23.292;2023-02-12T06:47:51;67683.88;;;1.29;100.00
22930;BME280;11630;42.660;23.292;2023-02-12T06:50:22;67683.33;;;1.28;100.00
22930;BME280;11630;42.660;23.292;2023-02-12T06:52:53;67686.80;;;1.28;100.00
22930;BME280;11630;42.660;23.292;2023-02-12T06:55:22;67686.83;;;1.30;100.00
22930;BME280;11630;42.660;23.292;2023-02-12T06:57:52;67694.38;;;1.37;100.00
22930;BME280;11630;42.660;23.292;2023-02-12T07:00:24;67690.33;;;1.32;100.00
22930;BME280;11630;42.660;23.292;2023-02-12T07:02:57;67691.42;;;1.36;100.00
22930;BME280;11630;42.660;23.292;2023-02-12T07:05:27;67691.42;;;1.36;100.00
22930;BME280;11630;42.660;23.292;2023-02-12T07:07:57;67698.41;;;1.40;100.00
22930;BME280;11630;42.660;23.292;2023-02-12T07:10:28;67691.42;;;1.36;99.72
22930;BME280;11630;42.660;23.292;2023-02-12T07:12:59;67697.89;;;1.42;99.64
22930;BME280;11630;42.660;23.292;2023-02-12T07:15:30;67707.86;;;1.50;99.42
22930;BME280;11630;42.660;23.292;2023-02-12T07:18:01;67701.95;;;1.47;99.04
22930;BME280;11630;42.660;23.292;2023-02-12T07:20:32;67711.34;;;1.51;98.93
22930;BME280;11630;42.660;23.292;2023-02-12T07:23:02;67710.28;;;1.51;98.86
22930;BME280;11630;42.660;23.292;2023-02-12T07:25:32;67712.42;;;1.52;99.04
22930;BME280;11630;42.660;23.292;2023-02-12T07:28:03;67713.52;;;1.56;98.88
22930;BME280;11630;42.660;23.292;2023-02-12T07:30:34;67733.48;;;1.74;98.91
22930;BME280;11630;42.660;23.292;2023-02-12T07:33:04;67744.79;;;1.82;98.40
22930;BME280;11630;42.660;23.292;2023-02-12T07:35:36;67743.98;;;1.80;98.07
22930;BME280;11630;42.660;23.292;2023-02-12T07:38:06;67748.30;;;1.84;98.27
22930;BME280;11630;42.660;23.292;2023-02-12T07:40:38;67729.73;;;1.73;98.27
22930;BME280;11630;42.660;23.292;2023-02-12T07:43:09;67730.77;;;1.69;98.54
22930;BME280;11630;42.660;23.292;2023-02-12T07:45:42;67759.95;;;2.01;97.94
22930;BME280;11630;42.660;23.292;2023-02-12T07:48:13;67781.75;;;2.15;97.11
22930;BME280;11630;42.660;23.292;2023-02-12T07:50:43;67773.12;;;2.07;97.02
22930;BME280;11630;42.660;23.292;2023-02-12T07:53:14;67767.45;;;2.03;97.91
22930;BME280;11630;42.660;23.292;2023-02-12T07:55:45;67754.25;;;1.92;98.39
22930;BME280;11630;42.660;23.292;2023-02-12T07:58:16;67778.52;;;2.15;97.76
22930;BME280;11630;42.660;23.292;2023-02-12T08:00:47;67777.99;;;2.14;98.12
22930;BME280;11630;42.660;23.292;2023-02-12T08:03:18;67770.44;;;2.07;98.63
22930;BME280;11630;42.660;23.292;2023-02-12T08:05:49;67802.02;;;2.37;98.26
22930;BME280;11630;42.660;23.292;2023-02-12T08:08:20;67795.52;;;2.29;98.12
22930;BME280;11630;42.660;23.292;2023-02-12T08:10:51;67779.91;;;2.17;98.38
22930;BME280;11630;42.660;23.292;2023-02-12T08:13:22;67748.56;;;1.86;100.00
22930;BME280;11630;42.660;23.292;2023-02-12T08:16:02;67728.66;;;1.72;100.00
22930;BME280;11630;42.660;23.292;2023-02-12T08:18:33;67721.08;;;1.63;100.00
22930;BME280;11630;42.660;23.292;2023-02-12T08:21:10;67728.05;;;1.64;100.00
22930;BME280;11630;42.660;23.292;2023-02-12T08:23:41;67716.75;;;1.56;100.00
22930;BME280;11630;42.660;23.292;2023-02-12T08:26:14;67728.05;;;1.64;100.00
22930;BME280;11630;42.660;23.292;2023-02-12T08:28:53;67714.86;;;1.56;100.00
22930;BME280;11630;42.660;23.292;2023-02-12T08:31:20;67698.98;;;1.43;100.00
22930;BME280;11630;42.660;23.292;2023-02-12T08:33:52;67711.66;;;1.55;100.00
22930;BME280;11630;42.660;23.292;2023-02-12T08:36:25;67708.12;;;1.49;100.00
22930;BME280;11630;42.660;23.292;2023-02-12T08:38:57;67706.52;;;1.50;100.00
22930;BME280;11630;42.660;23.292;2023-02-12T08:41:29;67717.87;;;1.62;100.00
22930;BME280;11630;42.660;23.292;2023-02-12T08:44:02;67712.17;;;1.53;100.00
22930;BME280;11630;42.660;23.292;2023-02-12T08:46:35;67741.56;;;1.79;100.00
22930;BME280;11630;42.660;23.292;2023-02-12T08:49:09;67923.55;;;3.49;100.00
22930;BME280;11630;42.660;23.292;2023-02-12T08:51:39;67816.59;;;2.51;100.00
22930;BME280;11630;42.660;23.292;2023-02-12T08:54:15;67772.61;;;2.09;100.00
22930;BME280;11630;42.660;23.292;2023-02-12T08:56:45;67753.20;;;1.96;100.00
22930;BME280;11630;42.660;23.292;2023-02-12T08:59:17;67734.27;;;1.71;100.00
22930;BME280;11630;42.660;23.292;2023-02-12T09:01:49;67743.18;;;1.81;100.00
22930;BME280;11630;42.660;23.292;2023-02-12T09:04:21;67726.99;;;1.66;100.00
22930;BME280;11630;42.660;23.292;2023-02-12T09:06:50;67734.81;;;1.74;100.00
22930;BME280;11630;42.660;23.292;2023-02-12T09:09:21;67735.08;;;1.73;100.00
22930;BME280;11630;42.660;23.292;2023-02-12T09:11:52;67740.73;;;1.77;100.00
22930;BME280;11630;42.660;23.292;2023-02-12T09:14:23;67739.91;;;1.75;100.00
22930;BME280;11630;42.660;23.292;2023-02-12T09:16:53;67742.38;;;1.81;100.00
22930;BME280;11630;42.660;23.292;2023-02-12T09:19:25;67724.84;;;1.66;100.00
22930;BME280;11630;42.660;23.292;2023-02-12T09:21:56;67711.93;;;1.57;100.00
22930;BME280;11630;42.660;23.292;2023-02-12T09:24:27;67719.72;;;1.60;100.00
22930;BME280;11630;42.660;23.292;2023-02-12T09:26:58;67719.20;;;1.62;100.00
22930;BME280;11630;42.660;23.292;2023-02-12T09:29:28;67703.83;;;1.47;100.00
22930;BME280;11630;42.660;23.292;2023-02-12T09:31:59;67697.91;;;1.44;100.00
22930;BME280;11630;42.660;23.292;2023-02-12T09:34:28;67719.72;;;1.60;100.00
22930;BME280;11630;42.660;23.292;2023-02-12T09:36:59;67731.02;;;1.68;100.00
22930;BME280;11630;42.660;23.292;2023-02-12T09:39:30;67741.80;;;1.76;100.00
22930;BME280;11630;42.660;23.292;2023-02-12T09:42:29;67731.85;;;1.70;100.00
22930;BME280;11630;42.660;23.292;2023-02-12T09:45:12;67729.69;;;1.68;100.00
22930;BME280;11630;42.660;23.292;2023-02-12T09:50:54;67724.55;;;1.62;100.00
22930;BME280;11630;42.660;23.292;2023-02-12T09:53:29;67740.73;;;1.77;100.00
22930;BME280;11630;42.660;23.292;2023-02-12T09:56:01;67736.16;;;1.74;100.00
22930;BME280;11630;42.660;23.292;2023-02-12T09:58:49;67740.42;;;1.73;100.00
22930;BME280;11630;42.660;23.292;2023-02-12T10:01:16;67720.80;;;1.61;100.00
22930;BME280;11630;42.660;23.292;2023-02-12T10:03:49;67735.39;;;1.77;100.00
22930;BME280;11630;42.660;23.292;2023-02-12T10:06:21;67749.12;;;1.86;100.00
22930;BME280;11630;42.660;23.292;2023-02-12T10:12:08;67785.55;;;2.21;100.00
22930;BME280;11630;42.660;23.292;2023-02-12T10:14:46;67764.77;;;2.03;100.00
22930;BME280;11630;42.660;23.292;2023-02-12T10:17:32;67753.42;;;1.90;100.00
22930;BME280;11630;42.660;23.292;2023-02-12T10:22:42;67758.05;;;1.98;100.00
22930;BME280;11630;42.660;23.292;2023-02-12T10:25:28;67793.66;;;2.28;100.00
22930;BME280;11630;42.660;23.292;2023-02-12T10:27:59;67811.47;;;2.45;100.00
22930;BME280;11630;42.660;23.292;2023-02-12T10:30:48;67824.41;;;2.57;100.00
22930;BME280;11630;42.660;23.292;2023-02-12T10:33:20;67806.03;;;2.37;100.00
22930;BME280;11630;42.660;23.292;2023-02-12T10:35:53;67824.41;;;2.57;100.00
22930;BME280;11630;42.660;23.292;2023-02-12T10:38:33;67805.28;;;2.43;100.00
22930;BME280;11630;42.660;23.292;2023-02-12T10:40:58;67801.23;;;2.38;100.00
22930;BME280;11630;42.660;23.292;2023-02-12T10:43:29;67802.56;;;2.38;100.00
22930;BME280;11630;42.660;23.292;2023-02-12T10:46:00;67818.77;;;2.53;100.00
22930;BME280;11630;42.660;23.292;2023-02-12T10:48:36;67803.35;;;2.37;100.00
22930;BME280;11630;42.660;23.292;2023-02-12T10:53:45;67820.89;;;2.52;100.00
22930;BME280;11630;42.660;23.292;2023-02-12T10:56:20;67808.22;;;2.42;100.00
22930;BME280;11630;42.660;23.292;2023-02-12T10:58:55;67812.30;;;2.49;100.00
22930;BME280;11630;42.660;23.292;2023-02-12T11:01:34;67819.53;;;2.50;100.00
22930;BME280;11630;42.660;23.292;2023-02-12T11:04:23;67840.89;;;2.73;100.00
22930;BME280;11630;42.660;23.292;2023-02-12T11:06:59;67876.78;;;3.03;100.00
22930;BME280;11630;42.660;23.292;2023-02-12T11:09:42;67859.51;;;2.89;100.00
22930;BME280;11630;42.660;23.292;2023-02-12T11:14:59;67888.70;;;3.18;100.00
22930;BME280;11630;42.660;23.292;2023-02-12T11:17:37;67889.48;;;3.15;100.00
22930;BME280;11630;42.660;23.292;2023-02-12T11:22:57;67869.51;;;3.00;100.00
22930;BME280;11630;42.660;23.292;2023-02-12T11:25:34;67855.75;;;2.88;100.00
22930;BME280;11630;42.660;23.292;2023-02-12T11:28:16;67871.13;;;2.99;100.00
22930;BME280;11630;42.660;23.292;2023-02-12T11:31:19;67877.05;;;3.04;100.00
22930;BME280;11630;42.660;23.292;2023-02-12T11:33:45;67907.08;;;3.35;100.00
22930;BME280;11630;42.660;23.292;2023-02-12T11:36:23;67923.56;;;3.52;100.00
22930;BME280;11630;42.660;23.292;2023-02-12T11:38:55;67937.87;;;3.64;100.00
22930;BME280;11630;42.660;23.292;2023-02-12T11:41:40;67935.42;;;3.60;100.00
22930;BME280;11630;42.660;23.292;2023-02-12T11:44:24;67944.59;;;3.66;100.00
22930;BME280;11630;42.660;23.292;2023-02-12T11:47:02;67917.05;;;3.43;100.00
22930;BME280;11630;42.660;23.292;2023-02-12T11:49:37;67940.81;;;3.63;100.00
22930;BME280;11630;42.660;23.292;2023-02-12T11:52:05;67947.59;;;3.70;100.00
22930;BME280;11630;42.660;23.292;2023-02-12T11:54:41;67974.88;;;3.94;100.00
22930;BME280;11630;42.660;23.292;2023-02-12T11:57:36;67974.05;;;3.92;99.17
22930;BME280;11630;42.660;23.292;2023-02-12T12:00:18;68012.47;;;4.30;98.56
22930;BME280;11630;42.660;23.292;2023-02-12T12:02:41;68004.34;;;4.22;97.47
22930;BME280;11630;42.660;23.292;2023-02-12T12:05:21;68026.80;;;4.44;96.29
22930;BME280;11630;42.660;23.292;2023-02-12T12:07:54;68007.35;;;4.29;96.75
22930;BME280;11630;42.660;23.292;2023-02-12T12:10:37;68029.48;;;4.44;96.01
22930;BME280;11630;42.660;23.292;2023-02-12T12:13:11;68018.69;;;4.37;95.50
22930;BME280;11630;42.660;23.292;2023-02-12T12:15:48;68011.64;;;4.28;95.51
22930;BME280;11630;42.660;23.292;2023-02-12T12:18:46;67998.67;;;4.16;96.11
22930;BME280;11630;42.660;23.292;2023-02-12T12:21:42;68017.85;;;4.32;95.44
22930;BME280;11630;42.660;23.292;2023-02-12T12:24:38;67992.98;;;4.12;95.73
22930;BME280;11630;42.660;23.292;2023-02-12T12:36:36;67958.95;;;3.83;96.67
22930;BME280;11630;42.660;23.292;2023-02-12T12:42:21;67969.19;;;3.87;97.54
22930;BME280;11630;42.660;23.292;2023-02-12T12:47:43;67969.20;;;3.90;95.97
22930;BME280;11630;42.660;23.292;2023-02-12T12:50:32;67966.44;;;3.80;95.63
22930;BME280;11630;42.660;23.292;2023-02-12T12:53:20;67982.99;;;4.04;96.07
22930;BME280;11630;42.660;23.292;2023-02-12T13:04:47;67979.47;;;3.99;96.05
22930;BME280;11630;42.660;23.292;2023-02-12T13:07:26;67971.63;;;3.91;96.72
22930;BME280;11630;42.660;23.292;2023-02-12T13:10:00;67962.20;;;3.86;97.31
22930;BME280;11630;42.660;23.292;2023-02-12T13:12:59;67966.23;;;3.86;98.18
22930;BME280;11630;42.660;23.292;2023-02-12T13:15:54;67968.91;;;3.86;97.60
22930;BME280;11630;42.660;23.292;2023-02-12T13:19:03;67977.03;;;3.96;96.74
22930;BME280;11630;42.660;23.292;2023-02-12T13:26:57;67985.68;;;4.04;97.51
22930;BME280;11630;42.660;23.292;2023-02-12T13:29:58;67974.88;;;3.94;97.99
22930;BME280;11630;42.660;23.292;2023-02-12T13:32:13;67967.31;;;3.87;98.04
22930;BME280;11630;42.660;23.292;2023-02-12T13:34:43;67955.94;;;3.77;98.19
22930;BME280;11630;42.660;23.292;2023-02-12T13:37:19;67960.00;;;3.79;98.22
22930;BME280;11630;42.660;23.292;2023-02-12T13:39:50;67970.55;;;3.90;98.43
22930;BME280;11630;42.660;23.292;2023-02-12T13:51:00;67952.21;;;3.78;98.79
22930;BME280;11630;42.660;23.292;2023-02-12T13:56:36;67955.69;;;3.78;99.27
22930;BME280;11630;42.660;23.292;2023-02-12T13:59:27;67954.33;;;3.75;99.49
22930;BME280;11630;42.660;23.292;2023-02-12T14:01:46;67951.91;;;3.74;99.66
22930;BME280;11630;42.660;23.292;2023-02-12T14:07:02;67953.25;;;3.77;99.32
22930;BME280;11630;42.660;23.292;2023-02-12T14:09:40;67958.63;;;3.77;99.58
22930;BME280;11630;42.660;23.292;2023-02-12T14:12:12;67963.55;;;3.86;99.44
22930;BME280;11630;42.660;23.292;2023-02-12T14:14:46;67951.09;;;3.72;99.20
22930;BME280;11630;42.660;23.292;2023-02-12T14:23:19;67952.45;;;3.75;99.26
22930;BME280;11630;42.660;23.292;2023-02-12T14:25:38;67943.78;;;3.64;99.54
22930;BME280;11630;42.660;23.292;2023-02-12T14:28:21;67947.27;;;3.66;99.40
22930;BME280;11630;42.660;23.292;2023-02-12T14:31:16;67947.59;;;3.70;99.50
22930;BME280;11630;42.660;23.292;2023-02-12T14:33:25;67949.19;;;3.69;99.42
22930;BME280;11630;42.660;23.292;2023-02-12T14:36:15;67956.48;;;3.75;99.21
22930;BME280;11630;42.660;23.292;2023-02-12T14:38:55;67958.66;;;3.79;99.24
22930;BME280;11630;42.660;23.292;2023-02-12T14:41:33;67967.57;;;3.86;98.92
22930;BME280;11630;42.660;23.292;2023-02-12T14:47:14;67955.67;;;3.75;98.86
22930;BME280;11630;42.660;23.292;2023-02-12T14:49:51;67960.55;;;3.82;99.05
22930;BME280;11630;42.660;23.292;2023-02-12T14:52:29;67977.03;;;3.96;98.74
22930;BME280;11630;42.660;23.292;2023-02-12T14:55:02;67957.85;;;3.79;98.70
22930;BME280;11630;42.660;23.292;2023-02-12T14:57:36;67968.66;;;3.87;98.75
22930;BME280;11630;42.660;23.292;2023-02-12T15:05:54;67950.02;;;3.74;99.34
22930;BME280;11630;42.660;23.292;2023-02-12T15:08:36;67944.59;;;3.66;99.30